Terminal Aerodrome Forecast
Issued by NWS

Home | Current Version | Previous Version | Text Only | Print | Product List | Glossary On
Versions: 1 2 3 4 5 6 7 8 9 10 11 12 13 14 15 16 17 18
289
FTUS43 KSGF 292320
TAFBBG
TAF
KBBG 292320Z 3000/3024 VRB03KT P6SM SCT250
     FM301400 VRB04KT P6SM SCT250 PROB30 3015/3019 4SM -TSRA
      SCT050CB
     FM301900 16005KT P6SM VCTS SCT050CB BKN250=

USA.gov is the U.S. government's official web portal to all federal, state and local government web resources and services.